createdAt,value
2023-03-16T00:00:23.848Z,52.69
2023-03-16T00:01:23.852Z,53.89
2023-03-16T00:02:23.845Z,57.07
2023-03-16T00:03:23.868Z,57.21
2023-03-16T00:04:23.829Z,49.66
2023-03-16T00:05:23.802Z,57.18
2023-03-16T00:06:25.661Z,47.68
2023-03-16T00:07:24.781Z,49.96
2023-03-16T00:08:23.778Z,49.74
2023-03-16T00:09:23.804Z,45.69
2023-03-16T00:10:23.766Z,51.53
2023-03-16T00:11:23.764Z,51.44
2023-03-16T00:12:23.756Z,39.38
2023-03-16T00:13:23.790Z,42.31
2023-03-16T00:14:23.769Z,57.22
2023-03-16T00:15:23.733Z,59.90
2023-03-16T00:16:23.787Z,54.08
2023-03-16T00:17:23.717Z,41.05
2023-03-16T00:18:23.715Z,45.93
2023-03-16T00:19:23.736Z,61.38
2023-03-16T00:20:23.700Z,59.91
2023-03-16T00:21:23.695Z,53.18
2023-03-16T00:22:23.700Z,57.78
2023-03-16T00:23:23.676Z,60.70
2023-03-16T00:24:23.700Z,46.24
2023-03-16T00:25:23.662Z,57.90
2023-03-16T00:26:23.655Z,64.20
2023-03-16T00:27:23.646Z,49.96
2023-03-16T00:28:23.662Z,51.12
2023-03-16T00:29:23.652Z,59.47
2023-03-16T00:30:23.626Z,62.56
2023-03-16T00:31:23.644Z,54.41
2023-03-16T00:32:23.670Z,46.80
2023-03-16T00:33:23.594Z,56.80
2023-03-16T00:34:23.618Z,48.10
2023-03-16T00:35:23.584Z,51.80
2023-03-16T00:36:23.571Z,61.08
2023-03-16T00:37:23.880Z,49.89
2023-03-16T00:38:23.556Z,45.40
2023-03-16T00:39:23.576Z,42.17
2023-03-16T00:40:23.539Z,52.62
2023-03-16T00:41:23.542Z,44.01
2023-03-16T00:42:23.534Z,58.00
2023-03-16T00:43:23.526Z,59.89
2023-03-16T00:44:23.543Z,60.27
2023-03-16T00:45:23.515Z,63.97
2023-03-16T00:46:23.554Z,54.54
2023-03-16T00:47:23.490Z,50.33
2023-03-16T00:48:23.477Z,56.07
2023-03-16T00:49:23.502Z,60.27
2023-03-16T00:50:23.472Z,47.93
2023-03-16T00:51:23.469Z,50.72
2023-03-16T00:52:23.451Z,53.90
2023-03-16T00:53:23.453Z,63.24
2023-03-16T00:54:23.456Z,57.85
2023-03-16T00:55:24.440Z,51.10
2023-03-16T00:56:23.422Z,63.91
2023-03-16T00:57:23.420Z,55.18
2023-03-16T00:58:23.409Z,65.26
2023-03-16T00:59:23.431Z,53.75
2023-03-16T01:00:23.400Z,58.29
2023-03-16T01:01:23.416Z,62.18
2023-03-16T01:02:23.657Z,59.55
2023-03-16T01:03:23.464Z,52.80
2023-03-16T01:04:23.397Z,43.60
2023-03-16T01:05:23.359Z,46.60
2023-03-16T01:06:23.356Z,54.46
2023-03-16T01:07:23.344Z,58.73
2023-03-16T01:08:23.338Z,53.13
2023-03-16T01:09:23.358Z,43.59
2023-03-16T01:10:23.330Z,54.65
2023-03-16T01:11:23.322Z,65.99
2023-03-16T01:12:23.315Z,59.31
2023-03-16T01:13:23.311Z,52.99
2023-03-16T01:14:23.334Z,49.36
2023-03-16T01:15:23.290Z,56.88
2023-03-16T01:16:23.387Z,55.75
2023-03-16T01:17:23.275Z,62.41
2023-03-16T01:18:23.278Z,58.96
2023-03-16T01:19:23.289Z,52.57
2023-03-16T01:20:23.251Z,53.18
2023-03-16T01:21:23.248Z,54.25
2023-03-16T01:22:23.241Z,45.98
2023-03-16T01:23:23.231Z,43.47
2023-03-16T01:24:23.250Z,43.27
2023-03-16T01:25:23.218Z,53.51
2023-03-16T01:26:23.229Z,55.87
2023-03-16T01:27:23.199Z,50.24
2023-03-16T01:28:23.179Z,59.57
2023-03-16T01:29:24.209Z,55.65
2023-03-16T01:30:23.172Z,54.65
2023-03-16T01:31:23.251Z,45.02
2023-03-16T01:32:23.176Z,42.37
2023-03-16T01:33:23.157Z,42.38
2023-03-16T01:34:23.170Z,41.57
2023-03-16T01:35:23.171Z,40.67
2023-03-16T01:36:23.132Z,40.62
2023-03-16T01:37:23.119Z,42.65
2023-03-16T01:38:23.117Z,54.01
2023-03-16T01:39:23.161Z,47.34
2023-03-16T01:40:23.104Z,54.05
2023-03-16T01:41:23.097Z,51.19
2023-03-16T01:42:23.093Z,55.79
2023-03-16T01:43:23.087Z,60.88
2023-03-16T01:44:23.105Z,60.18
2023-03-16T01:45:23.068Z,53.80
2023-03-16T01:46:23.112Z,57.40
2023-03-16T01:47:23.054Z,61.75
2023-03-16T01:48:24.805Z,59.70
2023-03-16T01:49:24.085Z,53.06
2023-03-16T01:50:23.032Z,58.28
2023-03-16T01:51:23.034Z,53.78
2023-03-16T01:52:23.017Z,49.70
2023-03-16T01:53:23.014Z,48.59
2023-03-16T01:54:23.055Z,50.50
2023-03-16T01:55:22.996Z,50.24
2023-03-16T01:56:22.990Z,55.04
2023-03-16T01:57:22.976Z,47.42
2023-03-16T01:58:22.972Z,47.87
2023-03-16T01:59:22.965Z,42.81
2023-03-16T02:00:22.987Z,55.20
2023-03-16T02:01:22.965Z,44.20
2023-03-16T02:02:22.946Z,39.40
2023-03-16T02:03:22.948Z,45.86
2023-03-16T02:04:23.071Z,45.22
2023-03-16T02:05:22.966Z,46.05
2023-03-16T02:06:22.925Z,49.76
2023-03-16T02:07:22.906Z,57.19
2023-03-16T02:08:22.906Z,58.57
2023-03-16T02:09:22.895Z,55.52
2023-03-16T02:10:22.910Z,58.92
2023-03-16T02:11:22.885Z,61.81
2023-03-16T02:12:22.884Z,56.32
2023-03-16T02:13:22.876Z,51.14
2023-03-16T02:14:22.859Z,48.22
2023-03-16T02:15:22.876Z,58.12
2023-03-16T02:16:22.972Z,62.46
2023-03-16T02:17:22.836Z,55.89
2023-03-16T02:18:22.826Z,54.87
2023-03-16T02:19:22.821Z,55.53
2023-03-16T02:20:22.835Z,60.80
2023-03-16T02:21:22.810Z,59.66
2023-03-16T02:22:22.793Z,61.25
2023-03-16T02:23:22.783Z,61.23
2023-03-16T02:24:22.821Z,53.26
2023-03-16T02:25:22.799Z,47.41
2023-03-16T02:26:22.762Z,57.90
2023-03-16T02:27:22.765Z,61.21
2023-03-16T02:28:22.856Z,55.92
2023-03-16T02:29:22.748Z,56.41
2023-03-16T02:30:22.765Z,60.80
2023-03-16T02:31:22.857Z,61.25
2023-03-16T02:32:22.838Z,56.60
2023-03-16T02:33:22.737Z,60.63
2023-03-16T02:34:22.711Z,51.53
2023-03-16T02:35:22.732Z,56.74
2023-03-16T02:36:22.693Z,57.86
2023-03-16T02:37:22.691Z,55.63
2023-03-16T02:38:22.682Z,55.57
2023-03-16T02:39:22.681Z,54.82
2023-03-16T02:40:22.683Z,48.33
2023-03-16T02:41:22.652Z,59.69
2023-03-16T02:42:22.644Z,59.05
2023-03-16T02:43:22.637Z,51.83
2023-03-16T02:44:22.643Z,55.54
2023-03-16T02:45:22.650Z,58.89
2023-03-16T02:46:22.630Z,50.13
2023-03-16T02:47:22.613Z,50.86
2023-03-16T02:48:22.614Z,52.30
2023-03-16T02:49:22.593Z,53.56
2023-03-16T02:50:22.616Z,41.80
2023-03-16T02:51:22.580Z,48.46
2023-03-16T02:52:22.573Z,57.88
2023-03-16T02:53:22.566Z,53.23
2023-03-16T02:54:22.567Z,54.48
2023-03-16T02:55:22.589Z,47.38
2023-03-16T02:56:22.562Z,51.44
2023-03-16T02:57:22.548Z,48.50
2023-03-16T02:58:22.528Z,44.23
2023-03-16T02:59:22.522Z,49.41
2023-03-16T03:00:22.553Z,56.66
2023-03-16T03:01:22.508Z,56.84
2023-03-16T03:02:22.511Z,56.86
2023-03-16T03:03:22.518Z,48.24
2023-03-16T03:04:22.493Z,47.93
2023-03-16T03:05:22.524Z,48.80
2023-03-16T03:06:22.475Z,55.76
2023-03-16T03:07:22.455Z,51.93
2023-03-16T03:08:23.469Z,41.67
2023-03-16T03:09:22.456Z,52.33
2023-03-16T03:10:22.473Z,50.56
2023-03-16T03:11:22.440Z,46.73
2023-03-16T03:12:22.423Z,43.75
2023-03-16T03:13:22.430Z,48.97
2023-03-16T03:14:22.417Z,61.29
2023-03-16T03:15:22.433Z,56.11
2023-03-16T03:16:22.413Z,43.44
2023-03-16T03:17:22.391Z,52.38
2023-03-16T03:18:22.391Z,43.96
2023-03-16T03:19:22.376Z,46.10
2023-03-16T03:20:22.410Z,46.20
2023-03-16T03:21:22.362Z,43.80
2023-03-16T03:22:22.362Z,53.98
2023-03-16T03:23:22.357Z,53.53
2023-03-16T03:24:22.339Z,52.30
2023-03-16T03:25:22.378Z,49.67
2023-03-16T03:26:22.325Z,51.39
2023-03-16T03:27:22.377Z,52.46
2023-03-16T03:28:22.308Z,46.65
2023-03-16T03:29:22.308Z,54.63
2023-03-16T03:30:22.330Z,57.08
2023-03-16T03:31:23.320Z,55.83
2023-03-16T03:32:22.280Z,60.33
2023-03-16T03:33:22.273Z,55.20
2023-03-16T03:34:22.275Z,60.08
2023-03-16T03:35:22.285Z,58.22
2023-03-16T03:36:22.255Z,62.15
2023-03-16T03:37:22.241Z,62.49
2023-03-16T03:38:22.239Z,59.62
2023-03-16T03:39:22.229Z,64.08
2023-03-16T03:40:22.219Z,59.66
2023-03-16T03:41:22.248Z,56.49
2023-03-16T03:42:22.207Z,61.13
2023-03-16T03:43:22.208Z,59.46
2023-03-16T03:44:22.194Z,52.44
2023-03-16T03:45:22.198Z,58.29
2023-03-16T03:46:22.298Z,60.88
2023-03-16T03:47:22.187Z,61.76
2023-03-16T03:48:22.175Z,58.23
2023-03-16T03:49:22.170Z,58.64
2023-03-16T03:50:22.155Z,59.40
2023-03-16T03:51:22.182Z,60.24
2023-03-16T03:52:22.146Z,56.84
2023-03-16T03:53:22.137Z,55.73
2023-03-16T03:54:22.131Z,56.28
2023-03-16T03:55:22.123Z,53.19
2023-03-16T03:56:22.131Z,53.02
2023-03-16T03:57:22.109Z,53.69
2023-03-16T03:58:22.106Z,58.51
2023-03-16T03:59:22.084Z,59.50
2023-03-16T04:00:22.147Z,57.31
2023-03-16T04:01:22.102Z,56.42
2023-03-16T04:02:22.267Z,56.71
2023-03-16T04:03:22.124Z,60.40
2023-03-16T04:04:22.047Z,61.89
2023-03-16T04:05:23.046Z,56.86
2023-03-16T04:06:22.064Z,57.82
2023-03-16T04:07:22.037Z,53.62
2023-03-16T04:08:22.025Z,61.11
2023-03-16T04:09:22.023Z,59.85
2023-03-16T04:10:22.007Z,65.42
2023-03-16T04:11:22.029Z,59.62
2023-03-16T04:12:21.993Z,55.81
2023-03-16T04:13:21.986Z,59.48
2023-03-16T04:14:21.985Z,61.48
2023-03-16T04:15:21.968Z,60.18
2023-03-16T04:16:22.076Z,60.04
2023-03-16T04:17:21.961Z,59.74
2023-03-16T04:18:21.948Z,61.68
2023-03-16T04:19:21.944Z,60.96
2023-03-16T04:20:21.935Z,56.13
2023-03-16T04:21:21.967Z,56.42
2023-03-16T04:22:21.917Z,60.25
2023-03-16T04:23:21.914Z,60.96
2023-03-16T04:24:21.907Z,56.43
2023-03-16T04:25:21.905Z,55.23
2023-03-16T04:26:21.926Z,59.23
2023-03-16T04:27:21.883Z,59.04
2023-03-16T04:28:21.882Z,59.31
2023-03-16T04:29:21.870Z,58.56
2023-03-16T04:30:21.866Z,57.38
2023-03-16T04:31:21.883Z,58.91
2023-03-16T04:32:21.853Z,58.14
2023-03-16T04:33:21.838Z,62.71
2023-03-16T04:34:21.830Z,63.47
2023-03-16T04:35:21.823Z,59.77
2023-03-16T04:36:21.848Z,58.49
2023-03-16T04:37:21.808Z,56.02
2023-03-16T04:38:21.805Z,57.04
2023-03-16T04:39:21.800Z,62.11
2023-03-16T04:40:21.790Z,59.96
2023-03-16T04:41:21.807Z,58.53
2023-03-16T04:42:21.777Z,60.16
2023-03-16T04:43:21.767Z,56.24
2023-03-16T04:44:21.777Z,64.22
2023-03-16T04:45:21.753Z,61.58
2023-03-16T04:46:21.834Z,58.53
2023-03-16T04:47:21.747Z,57.05
2023-03-16T04:48:21.738Z,61.01
2023-03-16T04:49:21.751Z,61.73
2023-03-16T04:50:21.732Z,60.91
2023-03-16T04:51:21.743Z,59.13
2023-03-16T04:52:21.711Z,56.90
2023-03-16T04:53:21.706Z,54.93
2023-03-16T04:54:21.697Z,62.66
2023-03-16T04:55:21.698Z,56.91
2023-03-16T04:56:21.701Z,54.26
2023-03-16T04:57:21.678Z,58.14
2023-03-16T04:58:21.665Z,56.17
2023-03-16T04:59:21.653Z,61.73
2023-03-16T05:00:21.678Z,62.23
2023-03-16T05:01:21.721Z,61.30
2023-03-16T05:02:21.646Z,60.70
2023-03-16T05:03:21.633Z,63.28
2023-03-16T05:04:21.625Z,60.25
2023-03-16T05:05:21.704Z,62.47
2023-03-16T05:06:21.638Z,62.58
2023-03-16T05:07:21.606Z,60.15
2023-03-16T05:08:21.601Z,61.60
2023-03-16T05:09:21.594Z,58.53
2023-03-16T05:10:21.588Z,61.68
2023-03-16T05:11:21.597Z,60.35
2023-03-16T05:12:21.577Z,61.94
2023-03-16T05:13:21.573Z,63.20
2023-03-16T05:14:21.557Z,55.11
2023-03-16T05:15:21.552Z,62.45
2023-03-16T05:16:21.586Z,60.46
2023-03-16T05:17:21.535Z,59.35
2023-03-16T05:18:21.557Z,59.30
2023-03-16T05:19:21.513Z,63.16
2023-03-16T05:20:21.507Z,60.99
2023-03-16T05:21:21.531Z,59.47
2023-03-16T05:22:21.504Z,60.07
2023-03-16T05:23:21.517Z,59.19
2023-03-16T05:24:21.485Z,63.54
2023-03-16T05:25:21.472Z,61.97
2023-03-16T05:26:21.491Z,62.01
2023-03-16T05:27:21.461Z,63.70
2023-03-16T05:28:21.457Z,60.39
2023-03-16T05:29:21.439Z,64.17
2023-03-16T05:30:21.435Z,62.32
2023-03-16T05:31:22.504Z,64.96
2023-03-16T05:32:21.421Z,62.19
2023-03-16T05:33:21.429Z,62.42
2023-03-16T05:34:21.411Z,58.91
2023-03-16T05:35:23.695Z,61.95
2023-03-16T05:36:22.424Z,58.35
2023-03-16T05:37:21.389Z,64.16
2023-03-16T05:38:21.376Z,61.43
2023-03-16T05:39:21.376Z,60.80
2023-03-16T05:40:21.366Z,62.75
2023-03-16T05:41:21.421Z,63.01
2023-03-16T05:42:21.354Z,62.51
2023-03-16T05:43:21.342Z,63.32
2023-03-16T05:44:21.333Z,62.73
2023-03-16T05:45:21.328Z,60.41
2023-03-16T05:46:21.360Z,63.25
2023-03-16T05:47:21.316Z,65.39
2023-03-16T05:48:21.325Z,63.14
2023-03-16T05:49:21.310Z,61.99
2023-03-16T05:50:21.322Z,63.38
2023-03-16T05:51:21.307Z,62.97
2023-03-16T05:52:21.271Z,65.25
2023-03-16T05:53:21.277Z,62.01
2023-03-16T05:54:21.257Z,61.91
2023-03-16T05:55:21.250Z,62.41
2023-03-16T05:56:21.267Z,63.70
2023-03-16T05:57:21.232Z,65.46
2023-03-16T05:58:21.234Z,65.96
2023-03-16T05:59:21.224Z,63.20
2023-03-16T06:00:21.214Z,65.28
2023-03-16T06:01:21.231Z,62.97
2023-03-16T06:02:21.204Z,59.87
2023-03-16T06:03:21.194Z,63.09
2023-03-16T06:04:21.192Z,63.17
2023-03-16T06:05:21.177Z,63.67
2023-03-16T06:06:21.206Z,64.47
2023-03-16T06:07:21.170Z,65.39
2023-03-16T06:08:21.179Z,61.37
2023-03-16T06:09:21.177Z,62.27
2023-03-16T06:10:21.152Z,60.39
2023-03-16T06:11:21.160Z,63.48
2023-03-16T06:12:21.129Z,62.86
2023-03-16T06:13:21.120Z,61.48
2023-03-16T06:14:21.127Z,63.37
2023-03-16T06:15:21.111Z,65.09
2023-03-16T06:16:21.196Z,59.32
2023-03-16T06:17:21.088Z,63.07
2023-03-16T06:18:21.095Z,62.90
2023-03-16T06:19:21.082Z,61.82
2023-03-16T06:20:21.060Z,63.34
2023-03-16T06:21:21.098Z,63.18
2023-03-16T06:22:21.094Z,63.78
2023-03-16T06:23:21.051Z,64.17
2023-03-16T06:24:21.045Z,62.41
2023-03-16T06:25:21.033Z,64.57
2023-03-16T06:26:21.076Z,66.07
2023-03-16T06:27:21.023Z,62.67
2023-03-16T06:28:21.006Z,61.75
2023-03-16T06:29:21.006Z,63.78
2023-03-16T06:30:21.003Z,66.26
2023-03-16T06:31:21.019Z,64.70
2023-03-16T06:32:20.997Z,64.69
2023-03-16T06:33:20.965Z,61.23
2023-03-16T06:34:21.980Z,64.37
2023-03-16T06:35:20.956Z,64.90
2023-03-16T06:36:20.976Z,64.83
2023-03-16T06:37:20.940Z,63.17
2023-03-16T06:38:20.943Z,64.82
2023-03-16T06:39:20.923Z,63.76
2023-03-16T06:40:20.918Z,65.75
2023-03-16T06:41:20.919Z,65.11
2023-03-16T06:42:20.935Z,65.91
2023-03-16T06:43:20.888Z,65.24
2023-03-16T06:44:20.891Z,66.25
2023-03-16T06:45:20.888Z,68.16
2023-03-16T06:46:20.914Z,67.34
2023-03-16T06:47:20.891Z,69.30
2023-03-16T06:48:20.860Z,64.96
2023-03-16T06:49:20.862Z,66.44
2023-03-16T06:50:20.845Z,63.10
2023-03-16T06:51:20.833Z,62.90
2023-03-16T06:52:20.859Z,64.09
2023-03-16T06:53:20.824Z,64.86
2023-03-16T06:54:20.820Z,64.12
2023-03-16T06:55:20.809Z,62.12
2023-03-16T06:56:20.802Z,69.34
2023-03-16T06:57:20.816Z,66.74
2023-03-16T06:58:20.782Z,64.16
2023-03-16T06:59:20.778Z,67.46
2023-03-16T07:00:20.767Z,62.76
2023-03-16T07:01:20.772Z,65.14
2023-03-16T07:02:21.793Z,61.69
2023-03-16T07:03:20.738Z,61.01
2023-03-16T07:04:20.839Z,64.87
2023-03-16T07:05:20.726Z,60.67
2023-03-16T07:06:20.726Z,65.34
2023-03-16T07:07:20.736Z,61.57
2023-03-16T07:08:20.700Z,65.14
2023-03-16T07:09:20.694Z,64.34
2023-03-16T07:10:20.678Z,63.69
2023-03-16T07:11:21.680Z,62.96
2023-03-16T07:12:20.691Z,63.52
2023-03-16T07:13:20.654Z,60.45
2023-03-16T07:14:20.649Z,59.75
2023-03-16T07:15:20.648Z,62.36
2023-03-16T07:16:20.696Z,63.35
2023-03-16T07:17:20.662Z,58.42
2023-03-16T07:18:20.621Z,61.92
2023-03-16T07:19:20.612Z,64.32
2023-03-16T07:20:22.928Z,60.63
2023-03-16T07:21:20.599Z,63.60
2023-03-16T07:22:20.622Z,61.19
2023-03-16T07:23:20.576Z,61.26
2023-03-16T07:24:20.570Z,64.89
2023-03-16T07:25:20.575Z,62.54
2023-03-16T07:26:20.562Z,62.13
2023-03-16T07:27:20.572Z,62.49
2023-03-16T07:28:20.545Z,63.36
2023-03-16T07:29:20.539Z,60.88
2023-03-16T07:30:20.532Z,62.62
2023-03-16T07:31:20.608Z,58.42
2023-03-16T07:32:20.541Z,63.51
2023-03-16T07:33:20.503Z,60.75
2023-03-16T07:34:20.511Z,66.18
2023-03-16T07:35:20.486Z,63.35
2023-03-16T07:36:20.535Z,61.74
2023-03-16T07:37:25.511Z,63.33
2023-03-16T07:38:22.472Z,62.13
2023-03-16T07:39:20.460Z,59.84
2023-03-16T07:40:20.452Z,61.62
2023-03-16T07:41:20.453Z,62.25
2023-03-16T07:42:20.465Z,65.09
2023-03-16T07:43:20.440Z,62.42
2023-03-16T07:44:20.424Z,62.08
2023-03-16T07:45:20.412Z,62.31
2023-03-16T07:46:20.463Z,63.77
2023-03-16T07:47:20.430Z,56.64
2023-03-16T07:48:20.388Z,64.45
2023-03-16T07:49:20.378Z,58.05
2023-03-16T07:50:20.377Z,58.95
2023-03-16T07:51:20.363Z,60.67
2023-03-16T07:52:20.386Z,62.85
2023-03-16T07:53:20.344Z,59.58
2023-03-16T07:54:20.338Z,59.65
2023-03-16T07:55:20.331Z,63.83
2023-03-16T07:56:20.320Z,60.62
2023-03-16T07:57:20.338Z,62.28
2023-03-16T07:58:20.309Z,63.25
2023-03-16T07:59:21.017Z,61.14
2023-03-16T08:00:21.312Z,62.49
2023-03-16T08:01:20.286Z,62.10
2023-03-16T08:02:20.388Z,61.90
2023-03-16T08:03:20.300Z,57.59
2023-03-16T08:04:20.259Z,62.39
2023-03-16T08:05:20.259Z,63.43
2023-03-16T08:06:20.253Z,61.04
2023-03-16T08:07:20.270Z,59.71
2023-03-16T08:08:20.238Z,62.82
2023-03-16T08:09:20.231Z,59.54
2023-03-16T08:10:20.221Z,58.57
2023-03-16T08:11:20.210Z,59.47
2023-03-16T08:12:20.261Z,53.72
2023-03-16T08:13:20.201Z,59.37
2023-03-16T08:14:20.200Z,63.81
2023-03-16T08:15:20.187Z,60.09
2023-03-16T08:16:22.041Z,60.18
2023-03-16T08:17:21.209Z,62.27
2023-03-16T08:18:20.181Z,62.07
2023-03-16T08:19:20.162Z,59.96
2023-03-16T08:20:20.151Z,61.49
2023-03-16T08:21:20.169Z,62.25
2023-03-16T08:22:20.160Z,60.11
2023-03-16T08:23:20.187Z,61.45
2023-03-16T08:24:20.123Z,60.60
2023-03-16T08:25:20.127Z,62.91
2023-03-16T08:26:20.112Z,64.19
2023-03-16T08:27:20.122Z,61.12
2023-03-16T08:28:20.091Z,62.75
2023-03-16T08:29:20.085Z,62.71
2023-03-16T08:30:20.073Z,59.33
2023-03-16T08:31:20.114Z,61.15
2023-03-16T08:32:20.095Z,63.96
2023-03-16T08:33:22.896Z,62.06
2023-03-16T08:34:20.056Z,57.50
2023-03-16T08:35:20.047Z,56.63
2023-03-16T08:36:20.020Z,60.83
2023-03-16T08:37:20.052Z,61.92
2023-03-16T08:38:20.002Z,58.20
2023-03-16T08:39:20.001Z,55.18
2023-03-16T08:40:19.991Z,56.81
2023-03-16T08:41:19.994Z,65.24
2023-03-16T08:42:20.000Z,61.41
2023-03-16T08:43:19.997Z,59.99
2023-03-16T08:44:19.970Z,62.13
2023-03-16T08:45:20.006Z,60.04
2023-03-16T08:46:19.988Z,58.73
2023-03-16T08:47:19.981Z,63.71
2023-03-16T08:48:19.939Z,57.71
2023-03-16T08:49:19.924Z,59.89
2023-03-16T08:50:19.943Z,63.81
2023-03-16T08:51:19.916Z,63.10
2023-03-16T08:52:19.923Z,56.32
2023-03-16T08:53:19.928Z,60.57
2023-03-16T08:54:19.903Z,62.91
2023-03-16T08:55:19.879Z,57.88
2023-03-16T08:56:19.893Z,59.70
2023-03-16T08:57:19.906Z,61.91
2023-03-16T08:58:19.869Z,56.32
2023-03-16T08:59:29.490Z,60.18
2023-03-16T09:00:21.846Z,52.55
2023-03-16T09:01:19.888Z,61.94
2023-03-16T09:02:20.004Z,56.24
2023-03-16T09:03:19.824Z,59.22
2023-03-16T09:04:19.867Z,57.41
2023-03-16T09:05:19.806Z,59.53
2023-03-16T09:06:19.812Z,59.74
2023-03-16T09:07:19.787Z,55.61
2023-03-16T09:08:19.807Z,53.70
2023-03-16T09:09:19.773Z,61.90
2023-03-16T09:10:19.802Z,61.02
2023-03-16T09:11:19.791Z,62.76
2023-03-16T09:12:19.802Z,58.80
2023-03-16T09:13:19.744Z,59.26
2023-03-16T09:14:19.755Z,58.61
2023-03-16T09:15:19.726Z,60.31
2023-03-16T09:16:19.734Z,60.67
2023-03-16T09:17:19.714Z,63.21
2023-03-16T09:18:19.728Z,57.82
2023-03-16T09:19:19.690Z,59.62
2023-03-16T09:20:26.149Z,57.37
2023-03-16T09:21:21.675Z,60.92
2023-03-16T09:22:19.857Z,62.60
2023-03-16T09:23:19.695Z,55.19
2023-03-16T09:24:19.656Z,60.01
2023-03-16T09:25:19.652Z,61.98
2023-03-16T09:26:19.650Z,58.41
2023-03-16T09:27:19.697Z,60.05
2023-03-16T09:28:21.688Z,63.33
2023-03-16T09:29:20.615Z,62.90
2023-03-16T09:30:19.609Z,56.81
2023-03-16T09:31:19.662Z,62.46
2023-03-16T09:32:19.617Z,58.75
2023-03-16T09:33:19.618Z,57.75
2023-03-16T09:34:19.583Z,60.06
2023-03-16T09:35:19.581Z,61.66
2023-03-16T09:36:19.613Z,59.83
2023-03-16T09:37:19.559Z,62.31
2023-03-16T09:38:19.595Z,62.65
2023-03-16T09:39:19.553Z,58.99
2023-03-16T09:40:19.539Z,54.91
2023-03-16T09:41:19.532Z,61.28
2023-03-16T09:42:19.518Z,62.57
2023-03-16T09:43:19.551Z,58.47
2023-03-16T09:44:19.514Z,63.59
2023-03-16T09:45:19.501Z,60.80
2023-03-16T09:46:19.515Z,60.86
2023-03-16T09:47:19.497Z,63.74
2023-03-16T09:48:19.498Z,63.10
2023-03-16T09:49:19.474Z,61.34
2023-03-16T09:50:19.490Z,59.22
2023-03-16T09:51:19.506Z,64.83
2023-03-16T09:52:19.446Z,60.79
2023-03-16T09:53:19.468Z,62.22
2023-03-16T09:54:19.434Z,59.49
2023-03-16T09:55:19.424Z,56.65
2023-03-16T09:56:19.419Z,60.79
2023-03-16T09:57:19.402Z,57.76
2023-03-16T09:58:20.441Z,63.65
2023-03-16T09:59:19.382Z,64.91
2023-03-16T10:00:19.418Z,60.07
2023-03-16T10:01:19.444Z,62.20
2023-03-16T10:02:19.363Z,62.81
2023-03-16T10:03:19.382Z,63.04
2023-03-16T10:04:19.378Z,61.88
2023-03-16T10:05:19.337Z,56.85
2023-03-16T10:06:19.346Z,60.64
2023-03-16T10:07:19.319Z,57.19
2023-03-16T10:08:19.338Z,62.88
2023-03-16T10:09:19.303Z,58.24
2023-03-16T10:10:19.291Z,57.05
2023-03-16T10:11:19.294Z,58.21
2023-03-16T10:12:19.284Z,61.46
2023-03-16T10:13:19.323Z,58.71
2023-03-16T10:14:19.270Z,60.57
2023-03-16T10:15:19.328Z,62.39
2023-03-16T10:16:19.329Z,58.89
2023-03-16T10:17:19.248Z,55.72
2023-03-16T10:18:19.256Z,58.49
2023-03-16T10:19:19.224Z,57.80
2023-03-16T10:20:19.217Z,57.90
2023-03-16T10:21:19.214Z,58.53
2023-03-16T10:22:19.203Z,55.83
2023-03-16T10:23:19.221Z,66.07
2023-03-16T10:24:19.188Z,63.55
2023-03-16T10:25:19.186Z,63.56
2023-03-16T10:26:19.199Z,58.49
2023-03-16T10:27:19.165Z,56.75
2023-03-16T10:28:19.189Z,61.15
2023-03-16T10:29:19.181Z,59.84
2023-03-16T10:30:19.187Z,55.50
2023-03-16T10:31:19.529Z,59.85
2023-03-16T10:32:19.124Z,62.68
2023-03-16T10:33:19.192Z,55.11
2023-03-16T10:34:19.113Z,56.93
2023-03-16T10:35:19.107Z,58.62
2023-03-16T10:36:19.123Z,57.41
2023-03-16T10:37:19.095Z,50.65
2023-03-16T10:38:19.119Z,57.89
2023-03-16T10:39:19.072Z,60.17
2023-03-16T10:40:19.071Z,60.71
2023-03-16T10:41:19.109Z,57.02
2023-03-16T10:42:19.043Z,57.06
2023-03-16T10:43:19.078Z,57.05
2023-03-16T10:44:19.032Z,58.89
2023-03-16T10:45:19.025Z,61.23
2023-03-16T10:46:19.142Z,54.11
2023-03-16T10:47:19.043Z,57.56
2023-03-16T10:48:18.998Z,60.45
2023-03-16T10:49:19.017Z,54.46
2023-03-16T10:50:19.019Z,62.63
2023-03-16T10:51:18.976Z,64.85
2023-03-16T10:52:18.981Z,65.97
2023-03-16T10:53:18.967Z,65.13
2023-03-16T10:54:18.990Z,65.25
2023-03-16T10:55:18.940Z,65.16
2023-03-16T10:56:18.940Z,67.10
2023-03-16T10:57:18.930Z,66.38
2023-03-16T10:58:18.921Z,68.59
2023-03-16T10:59:18.939Z,66.55
2023-03-16T11:00:18.957Z,66.15
2023-03-16T11:01:19.062Z,71.05
2023-03-16T11:02:18.892Z,75.54
2023-03-16T11:03:18.879Z,71.71
2023-03-16T11:04:18.921Z,71.56
2023-03-16T11:05:18.868Z,70.80
2023-03-16T11:06:18.882Z,65.79
2023-03-16T11:07:18.855Z,67.07
2023-03-16T11:08:18.850Z,66.09
2023-03-16T11:09:18.860Z,66.50
2023-03-16T11:10:18.825Z,66.31
2023-03-16T11:11:19.814Z,66.49
2023-03-16T11:12:18.816Z,67.58
2023-03-16T11:13:18.809Z,70.36
2023-03-16T11:14:18.827Z,69.86
2023-03-16T11:15:25.913Z,68.92
2023-03-16T11:16:20.810Z,70.60
2023-03-16T11:17:18.778Z,61.03
2023-03-16T11:18:18.767Z,59.58
2023-03-16T11:19:18.784Z,61.30
2023-03-16T11:20:18.827Z,60.50
2023-03-16T11:21:18.749Z,60.81
2023-03-16T11:22:18.748Z,60.93
2023-03-16T11:23:18.734Z,60.64
2023-03-16T11:24:18.778Z,60.36
2023-03-16T11:25:18.713Z,60.53
2023-03-16T11:26:18.716Z,61.04
2023-03-16T11:27:18.703Z,60.05
2023-03-16T11:28:18.693Z,60.00
2023-03-16T11:29:18.711Z,64.18
2023-03-16T11:30:18.755Z,71.78
2023-03-16T11:31:18.742Z,69.82
2023-03-16T11:32:18.661Z,70.57
2023-03-16T11:33:18.654Z,71.04
2023-03-16T11:34:18.663Z,71.40
2023-03-16T11:35:18.684Z,72.27
2023-03-16T11:36:18.651Z,69.88
2023-03-16T11:37:18.626Z,63.62
2023-03-16T11:38:18.613Z,67.01
2023-03-16T11:39:18.632Z,72.21
2023-03-16T11:40:18.591Z,68.06
2023-03-16T11:41:18.601Z,65.54
2023-03-16T11:42:18.565Z,57.24
2023-03-16T11:43:19.582Z,59.85
2023-03-16T11:44:18.587Z,65.82
2023-03-16T11:45:18.558Z,62.55
2023-03-16T11:46:18.600Z,65.53
2023-03-16T11:47:18.532Z,65.59
2023-03-16T11:48:18.533Z,65.60
2023-03-16T11:49:18.524Z,63.86
2023-03-16T11:50:18.535Z,63.82
2023-03-16T11:51:18.508Z,59.44
2023-03-16T11:52:18.496Z,58.09
2023-03-16T11:53:18.484Z,59.15
2023-03-16T11:54:18.480Z,61.02
2023-03-16T11:55:18.493Z,67.23
2023-03-16T11:56:18.456Z,71.41
2023-03-16T11:57:18.450Z,68.90
2023-03-16T11:58:18.443Z,70.26
2023-03-16T11:59:18.441Z,68.96
2023-03-16T12:00:18.454Z,69.99
2023-03-16T12:01:18.451Z,70.37
2023-03-16T12:02:18.563Z,69.26
2023-03-16T12:03:18.420Z,68.23
2023-03-16T12:04:18.463Z,66.70
2023-03-16T12:05:18.412Z,66.49
2023-03-16T12:06:23.161Z,68.43
2023-03-16T12:07:20.418Z,65.20
2023-03-16T12:08:18.362Z,64.28
2023-03-16T12:09:18.346Z,66.25
2023-03-16T12:10:19.364Z,63.39
2023-03-16T12:11:18.332Z,64.21
2023-03-16T12:12:18.326Z,68.68
2023-03-16T12:13:18.318Z,65.20
2023-03-16T12:14:18.314Z,64.01
2023-03-16T12:15:18.334Z,62.26
2023-03-16T12:16:18.334Z,63.28
2023-03-16T12:17:18.288Z,65.17
2023-03-16T12:18:18.291Z,62.76
2023-03-16T12:19:18.292Z,64.41
2023-03-16T12:20:18.289Z,67.40
2023-03-16T12:21:18.253Z,63.32
2023-03-16T12:22:18.238Z,63.78
2023-03-16T12:23:18.235Z,67.00
2023-03-16T12:24:18.228Z,62.15
2023-03-16T12:25:18.255Z,59.82
2023-03-16T12:26:18.222Z,62.55
2023-03-16T12:27:18.200Z,63.04
2023-03-16T12:28:18.193Z,65.02
2023-03-16T12:29:18.198Z,62.32
2023-03-16T12:30:18.207Z,61.44
2023-03-16T12:31:18.191Z,62.27
2023-03-16T12:32:18.168Z,61.47
2023-03-16T12:33:18.164Z,61.32
2023-03-16T12:34:18.152Z,67.52
2023-03-16T12:35:18.168Z,63.71
2023-03-16T12:36:18.119Z,59.77
2023-03-16T12:37:19.121Z,62.20
2023-03-16T12:38:18.121Z,70.35
2023-03-16T12:39:18.115Z,70.44
2023-03-16T12:40:18.174Z,69.13
2023-03-16T12:41:18.270Z,66.85
2023-03-16T12:42:18.089Z,69.82
2023-03-16T12:43:18.083Z,67.53
2023-03-16T12:44:18.081Z,66.13
2023-03-16T12:45:18.074Z,67.68
2023-03-16T12:46:18.130Z,67.35
2023-03-16T12:47:18.050Z,66.53
2023-03-16T12:48:18.036Z,67.88
2023-03-16T12:49:18.026Z,66.30
2023-03-16T12:50:18.032Z,66.13
2023-03-16T12:51:18.037Z,65.63
2023-03-16T12:52:18.013Z,65.77